Time;durP1;ratioP1;P1;durP2;ratioP2;P2;SDS_P1;SDS_P2;PMS_P1;PMS_P2;Temp;Humidity;BMP_temperature;BMP_pressure;BME280_temperature;BME280_humidity;BME280_pressure;Samples;Min_cycle;Max_cycle;Signal;HPM_P1;HPM_P2
2024/01/25 00:01:56;;;;;;;;;;;7.40;100.00;;;;;;5016314;28;19934;-65
2024/01/25 00:04:23;;;;;;;;;;;7.40;100.00;;;;;;5016697;28;20824;-65
2024/01/25 00:06:49;;;;;;;;;;;7.40;100.00;;;;;;5017368;28;19933;-65
2024/01/25 00:09:17;;;;;;;;;;;7.40;100.00;;;;;;5019597;28;19941;-65
2024/01/25 00:11:44;;;;;;;;;;;7.40;100.00;;;;;;5021154;28;19929;-65
2024/01/25 00:14:11;;;;;;;;;;;7.40;100.00;;;;;;5020475;28;20023;-65
2024/01/25 00:16:43;;;;;;;;;;;7.40;100.00;;;;;;5018357;28;19963;-65
2024/01/25 00:19:10;;;;;;;;;;;7.40;100.00;;;;;;5020724;28;19968;-65
2024/01/25 00:21:44;;;;;;;;;;;7.40;100.00;;;;;;5020988;28;20003;-65
2024/01/25 00:24:11;;;;;;;;;;;7.40;100.00;;;;;;5020901;28;19933;-65
2024/01/25 00:26:38;;;;;;;;;;;7.30;100.00;;;;;;5019343;28;19960;-65
2024/01/25 00:29:05;;;;;;;;;;;7.30;100.00;;;;;;5020733;28;19933;-65
2024/01/25 00:31:32;;;;;;;;;;;7.20;100.00;;;;;;5020126;28;19979;-65
2024/01/25 00:33:59;;;;;;;;;;;7.30;100.00;;;;;;5020703;28;20019;-65
2024/01/25 00:36:26;;;;;;;;;;;7.30;100.00;;;;;;5020247;28;20020;-65
2024/01/25 00:38:53;;;;;;;;;;;7.30;100.00;;;;;;5020651;28;19933;-65
2024/01/25 00:41:20;;;;;;;;;;;7.30;100.00;;;;;;5020436;28;20440;-65
2024/01/25 00:43:47;;;;;;;;;;;7.30;100.00;;;;;;5020159;28;20026;-65
2024/01/25 00:46:14;;;;;;;;;;;7.30;100.00;;;;;;5035560;28;20015;-65
2024/01/25 00:48:42;;;;;;;;;;;7.30;100.00;;;;;;5018450;28;19933;-65
2024/01/25 00:51:14;;;;;;;;;;;7.30;100.00;;;;;;5020265;28;19956;-65
2024/01/25 00:53:40;;;;;;;;;;;7.20;100.00;;;;;;5016658;28;19999;-65
2024/01/25 00:56:08;;;;;;;;;;;7.30;100.00;;;;;;5020084;28;19933;-65
2024/01/25 00:58:34;;;;;;;;;;;7.30;100.00;;;;;;5019774;28;20373;-65
2024/01/25 01:01:01;;;;;;;;;;;7.40;100.00;;;;;;5020059;28;20019;-65
2024/01/25 01:03:28;;;;;;;;;;;7.30;100.00;;;;;;5019298;28;19940;-65
2024/01/25 01:05:57;;;;;;;;;;;7.30;100.00;;;;;;5019568;28;20691;-65
2024/01/25 01:08:26;;;;;;;;;;;7.20;100.00;;;;;;5017930;28;20039;-65
2024/01/25 01:10:52;;;;;;;;;;;7.30;100.00;;;;;;5019410;28;19929;-65
2024/01/25 01:13:19;;;;;;;;;;;7.30;100.00;;;;;;5019275;28;19933;-65
2024/01/25 01:15:46;;;;;;;;;;;7.30;100.00;;;;;;5019911;28;19929;-64
2024/01/25 01:18:13;;;;;;;;;;;7.30;100.00;;;;;;5019759;28;20423;-65
2024/01/25 01:20:40;;;;;;;;;;;7.30;100.00;;;;;;5019022;28;19955;-64
2024/01/25 01:23:06;;;;;;;;;;;7.30;100.00;;;;;;5019510;28;20066;-64
2024/01/25 01:25:33;;;;;;;;;;;7.30;100.00;;;;;;5017618;28;20035;-65
2024/01/25 01:28:00;;;;;;;;;;;7.30;100.00;;;;;;5018934;28;19933;-65
2024/01/25 01:30:27;;;;;;;;;;;7.30;100.00;;;;;;5019315;28;20060;-64
2024/01/25 01:32:54;;;;;;;;;;;7.30;100.00;;;;;;5019716;28;19936;-65
2024/01/25 01:35:20;;;;;;;;;;;7.30;100.00;;;;;;5019643;28;19940;-64
2024/01/25 01:37:47;;;;;;;;;;;7.40;100.00;;;;;;5019185;28;19936;-65
2024/01/25 01:40:14;;;;;;;;;;;7.30;100.00;;;;;;5019259;28;19932;-65
2024/01/25 01:42:41;;;;;;;;;;;7.30;100.00;;;;;;5019208;28;19933;-65
2024/01/25 01:45:11;;;;;;;;;;;7.30;100.00;;;;;;5019227;28;20532;-65
2024/01/25 01:47:37;;;;;;;;;;;7.30;100.00;;;;;;5018530;28;20726;-65
2024/01/25 01:50:05;;;;;;;;;;;7.30;100.00;;;;;;5017065;28;20083;-65
2024/01/25 01:52:32;;;;;;;;;;;7.30;100.00;;;;;;5018257;28;20451;-65
2024/01/25 01:54:59;;;;;;;;;;;7.30;100.00;;;;;;5018424;28;20030;-65
2024/01/25 01:57:26;;;;;;;;;;;7.30;100.00;;;;;;5000137;28;19932;-64
2024/01/25 01:59:53;;;;;;;;;;;7.20;100.00;;;;;;5018016;28;19928;-65
2024/01/25 02:02:20;;;;;;;;;;;7.20;100.00;;;;;;5018100;28;20015;-65
2024/01/25 02:04:47;;;;;;;;;;;7.20;100.00;;;;;;5022851;28;19933;-65
2024/01/25 02:07:14;;;;;;;;;;;7.20;100.00;;;;;;5018139;28;20630;-65
2024/01/25 02:09:41;;;;;;;;;;;7.20;100.00;;;;;;5018053;28;20384;-65
2024/01/25 02:12:08;;;;;;;;;;;7.20;100.00;;;;;;5018442;28;20047;-64
2024/01/25 02:14:35;;;;;;;;;;;7.20;100.00;;;;;;5017830;28;20427;-65
2024/01/25 02:17:02;;;;;;;;;;;7.20;100.00;;;;;;5018447;28;20023;-65
2024/01/25 02:19:29;;;;;;;;;;;7.20;100.00;;;;;;5033649;28;19941;-64
2024/01/25 02:21:57;;;;;;;;;;;7.10;100.00;;;;;;5017118;28;19933;-65
2024/01/25 02:24:24;;;;;;;;;;;7.10;100.00;;;;;;5018540;28;20020;-64
2024/01/25 02:26:51;;;;;;;;;;;7.10;100.00;;;;;;5014155;28;20064;-64
2024/01/25 02:29:18;;;;;;;;;;;7.20;100.00;;;;;;5018715;28;19936;-64
2024/01/25 02:31:45;;;;;;;;;;;7.20;100.00;;;;;;5017397;28;19933;-65
2024/01/25 02:34:11;;;;;;;;;;;7.20;100.00;;;;;;5017085;28;20016;-64
2024/01/25 02:36:38;;;;;;;;;;;7.10;100.00;;;;;;5017920;28;19933;-64
2024/01/25 02:39:05;;;;;;;;;;;7.10;100.00;;;;;;5018290;28;19933;-65
2024/01/25 02:41:32;;;;;;;;;;;7.00;100.00;;;;;;5018217;28;20027;-64
2024/01/25 02:44:00;;;;;;;;;;;7.00;100.00;;;;;;5018127;28;20040;-64
2024/01/25 02:46:27;;;;;;;;;;;7.00;100.00;;;;;;5017761;28;20011;-64
2024/01/25 02:48:53;;;;;;;;;;;7.10;100.00;;;;;;5016393;28;20044;-64
2024/01/25 02:51:20;;;;;;;;;;;7.10;100.00;;;;;;5016601;28;21003;-64
2024/01/25 02:53:47;;;;;;;;;;;7.10;100.00;;;;;;5017778;28;19940;-65
2024/01/25 02:56:14;;;;;;;;;;;7.10;100.00;;;;;;5017697;28;19944;-65
2024/01/25 02:58:41;;;;;;;;;;;7.10;100.00;;;;;;5016450;28;20030;-64
2024/01/25 03:01:08;;;;;;;;;;;7.00;100.00;;;;;;5016972;28;19937;-65
2024/01/25 03:03:35;;;;;;;;;;;7.10;100.00;;;;;;5017525;28;19929;-64
2024/01/25 03:06:02;;;;;;;;;;;7.00;100.00;;;;;;5017875;28;20026;-64
2024/01/25 03:08:29;;;;;;;;;;;7.00;100.00;;;;;;5012686;28;20489;-64
2024/01/25 03:10:56;;;;;;;;;;;6.90;100.00;;;;;;5017379;28;20681;-64
2024/01/25 03:13:23;;;;;;;;;;;6.90;100.00;;;;;;5017503;28;19933;-64
2024/01/25 03:15:50;;;;;;;;;;;6.90;100.00;;;;;;5017646;28;19932;-64
2024/01/25 03:18:17;;;;;;;;;;;6.90;100.00;;;;;;5017124;28;20024;-64
2024/01/25 03:20:44;;;;;;;;;;;6.90;100.00;;;;;;5017735;28;20695;-64
2024/01/25 03:23:11;;;;;;;;;;;6.90;100.00;;;;;;5017811;28;19943;-64
2024/01/25 03:25:38;;;;;;;;;;;6.90;100.00;;;;;;5015586;28;20031;-64
2024/01/25 03:28:06;;;;;;;;;;;6.90;100.00;;;;;;5016997;28;20091;-64
2024/01/25 03:30:33;;;;;;;;;;;6.90;100.00;;;;;;5015441;28;19937;-64
2024/01/25 03:33:00;;;;;;;;;;;6.90;100.00;;;;;;5017558;28;20110;-64
2024/01/25 03:35:27;;;;;;;;;;;6.80;100.00;;;;;;5016626;28;20019;-64
2024/01/25 03:37:53;;;;;;;;;;;6.80;100.00;;;;;;5017208;28;19945;-64
2024/01/25 03:40:20;;;;;;;;;;;6.80;100.00;;;;;;5017376;28;19941;-64
2024/01/25 03:42:47;;;;;;;;;;;6.80;100.00;;;;;;5019533;28;20024;-64
2024/01/25 03:45:34;;;;;;;;;;;6.80;100.00;;;;;;5021324;28;19933;-64
2024/01/25 03:48:01;;;;;;;;;;;6.90;100.00;;;;;;5021380;28;19940;-64
2024/01/25 03:50:28;;;;;;;;;;;6.90;100.00;;;;;;5020210;28;19937;-64
2024/01/25 03:52:55;;;;;;;;;;;6.90;100.00;;;;;;5019857;28;19956;-64
2024/01/25 03:55:21;;;;;;;;;;;6.90;100.00;;;;;;5021341;28;20847;-64
2024/01/25 03:57:49;;;;;;;;;;;6.90;100.00;;;;;;5020543;28;21228;-64
2024/01/25 04:00:16;;;;;;;;;;;6.80;100.00;;;;;;5019377;28;20091;-64
2024/01/25 04:02:43;;;;;;;;;;;6.90;100.00;;;;;;5021356;28;19940;-65
2024/01/25 04:05:10;;;;;;;;;;;6.80;100.00;;;;;;5021382;28;19995;-64
2024/01/25 04:07:37;;;;;;;;;;;6.80;100.00;;;;;;5020306;28;19933;-64
2024/01/25 04:10:04;;;;;;;;;;;6.80;100.00;;;;;;5021007;28;20015;-64
2024/01/25 04:12:32;;;;;;;;;;;6.80;100.00;;;;;;5019848;28;19933;-64
2024/01/25 04:14:59;;;;;;;;;;;6.80;100.00;;;;;;5019974;28;19933;-64
2024/01/25 04:17:26;;;;;;;;;;;6.80;100.00;;;;;;5020006;28;19944;-64
2024/01/25 04:19:52;;;;;;;;;;;6.80;100.00;;;;;;5020908;28;20015;-64
2024/01/25 04:22:19;;;;;;;;;;;6.80;100.00;;;;;;5020501;28;20031;-64
2024/01/25 04:24:48;;;;;;;;;;;6.80;100.00;;;;;;5020712;28;19940;-64
2024/01/25 04:27:16;;;;;;;;;;;6.80;100.00;;;;;;5019745;28;19933;-65
2024/01/25 04:29:43;;;;;;;;;;;6.80;100.00;;;;;;5019966;28;20754;-65
2024/01/25 04:32:10;;;;;;;;;;;6.70;100.00;;;;;;5019804;28;19933;-65
2024/01/25 04:34:36;;;;;;;;;;;6.70;100.00;;;;;;5019815;28;20640;-64
2024/01/25 04:37:03;;;;;;;;;;;6.70;100.00;;;;;;5018308;28;20305;-65
2024/01/25 04:39:30;;;;;;;;;;;6.70;100.00;;;;;;5018457;28;20542;-65
2024/01/25 04:41:57;;;;;;;;;;;6.70;100.00;;;;;;5019446;28;20025;-64
2024/01/25 04:44:24;;;;;;;;;;;6.70;100.00;;;;;;5020540;28;19980;-64
2024/01/25 04:46:52;;;;;;;;;;;6.70;100.00;;;;;;5020470;28;20002;-64
2024/01/25 04:49:18;;;;;;;;;;;6.70;100.00;;;;;;4997955;28;20158;-64
2024/01/25 04:51:45;;;;;;;;;;;6.70;100.00;;;;;;5020008;28;19933;-64
2024/01/25 04:54:15;;;;;;;;;;;6.60;100.00;;;;;;5019117;28;19933;-65
2024/01/25 04:56:42;;;;;;;;;;;6.70;100.00;;;;;;5019738;28;20026;-64
2024/01/25 04:59:09;;;;;;;;;;;6.80;100.00;;;;;;5018947;28;19964;-64
2024/01/25 05:01:35;;;;;;;;;;;6.70;100.00;;;;;;5019959;28;20046;-64
2024/01/25 05:04:05;;;;;;;;;;;6.70;100.00;;;;;;5024696;28;20036;-69
2024/01/25 05:06:32;;;;;;;;;;;6.70;100.00;;;;;;5018816;28;19940;-69
2024/01/25 05:08:59;;;;;;;;;;;6.70;100.00;;;;;;5017951;28;19940;-70
2024/01/25 05:11:26;;;;;;;;;;;6.80;100.00;;;;;;5018821;28;19939;-70
2024/01/25 05:13:53;;;;;;;;;;;6.80;100.00;;;;;;5019797;28;19937;-70
2024/01/25 05:16:20;;;;;;;;;;;6.70;100.00;;;;;;5019500;28;20026;-69
2024/01/25 05:18:46;;;;;;;;;;;6.70;100.00;;;;;;5018681;28;19940;-69
2024/01/25 05:21:13;;;;;;;;;;;6.70;100.00;;;;;;5019681;28;19940;-70
2024/01/25 05:23:40;;;;;;;;;;;6.70;100.00;;;;;;5018937;28;20259;-69
2024/01/25 05:26:07;;;;;;;;;;;6.70;100.00;;;;;;5017884;28;19972;-69
2024/01/25 05:28:34;;;;;;;;;;;6.60;100.00;;;;;;5017615;28;19933;-70
2024/01/25 05:31:00;;;;;;;;;;;6.60;100.00;;;;;;5018003;28;20267;-69
2024/01/25 05:33:31;;;;;;;;;;;6.70;100.00;;;;;;5018861;28;20350;-64
2024/01/25 05:35:58;;;;;;;;;;;6.70;100.00;;;;;;5019075;28;19933;-64
2024/01/25 05:38:25;;;;;;;;;;;6.70;100.00;;;;;;5018621;28;19943;-64
2024/01/25 05:40:52;;;;;;;;;;;6.70;100.00;;;;;;5019412;28;19933;-64
2024/01/25 05:43:19;;;;;;;;;;;6.60;100.00;;;;;;5017955;28;19935;-64
2024/01/25 05:45:47;;;;;;;;;;;6.60;100.00;;;;;;5017803;28;20028;-64
2024/01/25 05:48:14;;;;;;;;;;;6.60;100.00;;;;;;5017854;28;19940;-64
2024/01/25 05:50:40;;;;;;;;;;;6.60;100.00;;;;;;5019024;28;19947;-65
2024/01/25 05:53:07;;;;;;;;;;;6.50;100.00;;;;;;5018382;28;20360;-65
2024/01/25 05:55:34;;;;;;;;;;;6.50;100.00;;;;;;5018214;28;19965;-65
2024/01/25 05:58:01;;;;;;;;;;;6.50;100.00;;;;;;5018370;28;21169;-68
2024/01/25 06:00:28;;;;;;;;;;;6.50;100.00;;;;;;5023644;28;20011;-66
2024/01/25 06:02:55;;;;;;;;;;;6.50;100.00;;;;;;5018740;28;19999;-65
2024/01/25 06:05:22;;;;;;;;;;;6.40;100.00;;;;;;5018569;28;19933;-66
2024/01/25 06:07:50;;;;;;;;;;;6.40;100.00;;;;;;5018709;28;20653;-65
2024/01/25 06:10:17;;;;;;;;;;;6.40;100.00;;;;;;5017022;28;19933;-64
2024/01/25 06:12:44;;;;;;;;;;;6.40;100.00;;;;;;5017300;28;19968;-65
2024/01/25 06:15:11;;;;;;;;;;;6.40;100.00;;;;;;5017081;28;19933;-64
2024/01/25 06:17:38;;;;;;;;;;;6.40;100.00;;;;;;5016771;28;20009;-64
2024/01/25 06:20:05;;;;;;;;;;;6.40;100.00;;;;;;5017867;28;20366;-64
2024/01/25 06:22:32;;;;;;;;;;;6.30;100.00;;;;;;5016803;28;19968;-64
2024/01/25 06:24:59;;;;;;;;;;;6.30;100.00;;;;;;5018099;28;19940;-64
2024/01/25 06:27:26;;;;;;;;;;;6.30;100.00;;;;;;5017944;28;20543;-64
2024/01/25 06:29:52;;;;;;;;;;;6.30;100.00;;;;;;5018382;28;20067;-65
2024/01/25 06:32:19;;;;;;;;;;;6.20;100.00;;;;;;5017854;28;19968;-64
2024/01/25 06:34:53;;;;;;;;;;;6.20;100.00;;;;;;5016664;28;19940;-65
2024/01/25 06:37:21;;;;;;;;;;;6.20;100.00;;;;;;5017619;28;19933;-65
2024/01/25 06:39:48;;;;;;;;;;;6.20;100.00;;;;;;5017446;28;19933;-64
2024/01/25 06:42:15;;;;;;;;;;;6.20;100.00;;;;;;5016305;28;20097;-65
2024/01/25 06:44:42;;;;;;;;;;;6.10;100.00;;;;;;5018153;28;20019;-64
2024/01/25 06:47:10;;;;;;;;;;;6.10;100.00;;;;;;5017708;28;20404;-64
2024/01/25 06:49:36;;;;;;;;;;;6.10;100.00;;;;;;5017737;28;21032;-65
2024/01/25 06:52:03;;;;;;;;;;;6.10;100.00;;;;;;5018042;28;19929;-64
2024/01/25 06:54:31;;;;;;;;;;;6.10;100.00;;;;;;5015205;28;19964;-65
2024/01/25 06:56:58;;;;;;;;;;;6.10;100.00;;;;;;5017989;28;19933;-65
2024/01/25 06:59:25;;;;;;;;;;;6.10;100.00;;;;;;5017349;28;19940;-65
2024/01/25 07:01:52;;;;;;;;;;;6.10;100.00;;;;;;5018087;28;19932;-65
2024/01/25 07:04:20;;;;;;;;;;;6.10;100.00;;;;;;5017812;28;19939;-64
2024/01/25 07:06:47;;;;;;;;;;;6.10;100.00;;;;;;5017751;28;19933;-65
2024/01/25 07:09:14;;;;;;;;;;;6.20;100.00;;;;;;5017216;28;19932;-65
2024/01/25 07:11:41;;;;;;;;;;;6.10;100.00;;;;;;5017161;28;20405;-65
2024/01/25 07:14:08;;;;;;;;;;;6.10;100.00;;;;;;5017566;28;19995;-65
2024/01/25 07:16:35;;;;;;;;;;;6.00;100.00;;;;;;5017367;28;19937;-65
2024/01/25 07:19:03;;;;;;;;;;;6.00;100.00;;;;;;5017509;28;20306;-65
2024/01/25 07:21:32;;;;;;;;;;;6.00;100.00;;;;;;5017572;28;20446;-65
2024/01/25 07:24:01;;;;;;;;;;;6.00;100.00;;;;;;5017574;28;19933;-65
2024/01/25 07:26:27;;;;;;;;;;;6.00;100.00;;;;;;5026434;28;19941;-65
2024/01/25 07:28:57;;;;;;;;;;;6.00;100.00;;;;;;5015859;28;19941;-64
2024/01/25 07:31:27;;;;;;;;;;;6.00;100.00;;;;;;5017523;28;20765;-65
2024/01/25 07:33:55;;;;;;;;;;;6.00;100.00;;;;;;5015220;28;19933;-64
2024/01/25 07:36:22;;;;;;;;;;;6.00;100.00;;;;;;5016213;28;19992;-65
2024/01/25 07:38:51;;;;;;;;;;;6.00;100.00;;;;;;5016332;28;19933;-64
2024/01/25 07:41:18;;;;;;;;;;;6.00;100.00;;;;;;5016360;28;19933;-65
2024/01/25 07:43:45;;;;;;;;;;;6.00;100.00;;;;;;5015557;28;21342;-66
2024/01/25 07:46:14;;;;;;;;;;;6.00;100.00;;;;;;5017057;28;19984;-67
2024/01/25 07:48:42;;;;;;;;;;;6.10;100.00;;;;;;5016450;28;19979;-67
2024/01/25 07:51:15;;;;;;;;;;;6.10;100.00;;;;;;5038110;22;19931;-67
2024/01/25 07:53:42;;;;;;;;;;;6.10;100.00;;;;;;5036861;28;19935;-66
2024/01/25 07:56:10;;;;;;;;;;;6.10;100.00;;;;;;5039783;28;19931;-66
2024/01/25 07:58:38;;;;;;;;;;;6.10;100.00;;;;;;5042106;28;20328;-66
2024/01/25 08:01:08;;;;;;;;;;;6.10;100.00;;;;;;5040186;28;19932;-66
2024/01/25 08:03:36;;;;;;;;;;;6.10;100.00;;;;;;5041666;28;20054;-67
2024/01/25 08:06:03;;;;;;;;;;;6.20;100.00;;;;;;5040826;28;20377;-67
2024/01/25 08:08:30;;;;;;;;;;;6.20;100.00;;;;;;5040115;28;19999;-65
2024/01/25 08:10:58;;;;;;;;;;;6.20;100.00;;;;;;5041183;28;20159;-66
2024/01/25 08:13:28;;;;;;;;;;;6.20;100.00;;;;;;5043522;28;19979;-65
2024/01/25 08:15:57;;;;;;;;;;;6.20;100.00;;;;;;5042154;28;19935;-65
2024/01/25 08:18:24;;;;;;;;;;;6.20;100.00;;;;;;5042991;28;19935;-65
2024/01/25 08:20:51;;;;;;;;;;;6.20;100.00;;;;;;5041994;28;19929;-64
2024/01/25 08:23:18;;;;;;;;;;;6.20;100.00;;;;;;5042856;28;19929;-65
2024/01/25 08:25:45;;;;;;;;;;;6.30;100.00;;;;;;5041696;28;20015;-65
2024/01/25 08:28:12;;;;;;;;;;;6.30;100.00;;;;;;5043411;28;19998;-65
2024/01/25 08:30:39;;;;;;;;;;;6.30;100.00;;;;;;5044516;28;19932;-65
2024/01/25 08:33:06;;;;;;;;;;;6.30;100.00;;;;;;5045122;28;20054;-65
2024/01/25 08:35:33;;;;;;;;;;;6.40;100.00;;;;;;5045939;28;19929;-65
2024/01/25 08:38:00;;;;;;;;;;;6.40;100.00;;;;;;5032125;28;19929;-65
2024/01/25 08:40:27;;;;;;;;;;;6.40;100.00;;;;;;5046674;28;19933;-65
2024/01/25 08:42:56;;;;;;;;;;;6.40;100.00;;;;;;5046841;28;20015;-65
2024/01/25 08:45:23;;;;;;;;;;;6.40;100.00;;;;;;5045196;28;19935;-65
2024/01/25 08:47:51;;;;;;;;;;;6.40;100.00;;;;;;5046708;28;19939;-65
2024/01/25 08:50:18;;;;;;;;;;;6.40;100.00;;;;;;5046842;28;19929;-65
2024/01/25 08:52:45;;;;;;;;;;;6.40;100.00;;;;;;5046711;28;19928;-65
2024/01/25 08:55:12;;;;;;;;;;;6.40;100.00;;;;;;5047049;28;20333;-65
2024/01/25 08:57:40;;;;;;;;;;;6.40;100.00;;;;;;5045449;28;19946;-65
2024/01/25 09:00:11;;;;;;;;;;;6.40;100.00;;;;;;5043025;28;19939;-65
2024/01/25 09:02:38;;;;;;;;;;;6.50;100.00;;;;;;5046729;28;20417;-65
2024/01/25 09:05:06;;;;;;;;;;;6.50;100.00;;;;;;5047299;28;20012;-65
2024/01/25 09:07:33;;;;;;;;;;;6.50;100.00;;;;;;5046339;28;19979;-65
2024/01/25 09:10:00;;;;;;;;;;;6.60;100.00;;;;;;5045998;28;20052;-65
2024/01/25 09:12:26;;;;;;;;;;;6.60;100.00;;;;;;5045862;28;20439;-65
2024/01/25 09:14:53;;;;;;;;;;;6.60;100.00;;;;;;5044695;28;20303;-65
2024/01/25 09:17:23;;;;;;;;;;;6.60;100.00;;;;;;5044727;28;20011;-65
2024/01/25 09:19:51;;;;;;;;;;;6.70;100.00;;;;;;5045116;28;19959;-65
2024/01/25 09:22:19;;;;;;;;;;;6.70;100.00;;;;;;5045976;28;19951;-65
2024/01/25 09:24:46;;;;;;;;;;;6.70;100.00;;;;;;5043899;28;20006;-65
2024/01/25 09:27:14;;;;;;;;;;;6.80;100.00;;;;;;5033347;28;20015;-66
2024/01/25 09:29:41;;;;;;;;;;;6.80;100.00;;;;;;5031303;28;19929;-66
2024/01/25 09:32:09;;;;;;;;;;;6.80;100.00;;;;;;5041532;28;20449;-66
2024/01/25 09:34:36;;;;;;;;;;;6.90;100.00;;;;;;5045578;28;19983;-66
2024/01/25 09:37:06;;;;;;;;;;;6.90;100.00;;;;;;5046404;28;19928;-66
2024/01/25 09:39:33;;;;;;;;;;;6.90;100.00;;;;;;5046377;28;19929;-66
2024/01/25 09:42:00;;;;;;;;;;;6.90;100.00;;;;;;5046272;28;19928;-66
2024/01/25 09:44:27;;;;;;;;;;;6.90;100.00;;;;;;5045264;28;19984;-66
2024/01/25 09:46:54;;;;;;;;;;;6.90;100.00;;;;;;5045288;28;20285;-66
2024/01/25 09:49:20;;;;;;;;;;;7.00;100.00;;;;;;5044342;28;20674;-66
2024/01/25 09:51:50;;;;;;;;;;;7.00;100.00;;;;;;5045380;28;19936;-66
2024/01/25 09:54:18;;;;;;;;;;;7.10;100.00;;;;;;5044163;28;20039;-66
2024/01/25 09:56:45;;;;;;;;;;;7.00;100.00;;;;;;5042706;28;19933;-66
2024/01/25 09:59:11;;;;;;;;;;;7.00;100.00;;;;;;5044100;28;19937;-66
2024/01/25 10:01:38;;;;;;;;;;;7.10;100.00;;;;;;5042055;28;20622;-66
2024/01/25 10:04:08;;;;;;;;;;;7.20;100.00;;;;;;5072708;28;20005;-68
2024/01/25 10:06:35;;;;;;;;;;;7.10;100.00;;;;;;5043402;28;19928;-67
2024/01/25 10:09:04;;;;;;;;;;;7.10;100.00;;;;;;5044945;28;19937;-67
2024/01/25 10:11:35;;;;;;;;;;;7.10;100.00;;;;;;5044211;28;20752;-67
2024/01/25 10:14:08;;;;;;;;;;;7.00;100.00;;;;;;5044388;28;19935;-67
2024/01/25 10:16:35;;;;;;;;;;;7.00;100.00;;;;;;5044360;28;19928;-67
2024/01/25 10:19:06;;;;;;;;;;;7.00;100.00;;;;;;5060979;28;19939;-67
2024/01/25 10:21:35;;;;;;;;;;;7.00;100.00;;;;;;5060531;28;20420;-67
2024/01/25 10:24:03;;;;;;;;;;;7.00;100.00;;;;;;5044493;28;19929;-67
2024/01/25 10:26:30;;;;;;;;;;;7.00;100.00;;;;;;5045701;28;19937;-67
2024/01/25 10:29:00;;;;;;;;;;;7.10;100.00;;;;;;5044809;28;19960;-67
2024/01/25 10:31:30;;;;;;;;;;;7.10;100.00;;;;;;5044654;28;20255;-67
2024/01/25 10:33:59;;;;;;;;;;;7.10;100.00;;;;;;5042467;28;19964;-67
2024/01/25 10:36:26;;;;;;;;;;;7.10;100.00;;;;;;5044016;28;19935;-66
2024/01/25 10:38:53;;;;;;;;;;;7.10;100.00;;;;;;5043798;28;19928;-67
2024/01/25 10:41:22;;;;;;;;;;;7.10;100.00;;;;;;5034986;28;19956;-67
2024/01/25 10:43:49;;;;;;;;;;;7.20;100.00;;;;;;5044367;28;19924;-66
2024/01/25 10:46:16;;;;;;;;;;;7.30;100.00;;;;;;5043004;28;19935;-67
2024/01/25 10:48:43;;;;;;;;;;;7.30;100.00;;;;;;5041977;28;20466;-67
2024/01/25 10:51:10;;;;;;;;;;;7.30;100.00;;;;;;5043604;28;19925;-67
2024/01/25 10:53:39;;;;;;;;;;;7.30;100.00;;;;;;5043149;28;20508;-67
2024/01/25 10:56:06;;;;;;;;;;;7.30;100.00;;;;;;5044778;28;19975;-67
2024/01/25 10:58:35;;;;;;;;;;;7.30;100.00;;;;;;5043746;28;19929;-67
2024/01/25 11:01:10;;;;;;;;;;;7.30;100.00;;;;;;5044381;28;20404;-66
2024/01/25 11:03:42;;;;;;;;;;;7.30;100.00;;;;;;5035763;28;20011;-67
2024/01/25 11:06:12;;;;;;;;;;;7.30;100.00;;;;;;5044767;28;19947;-67
2024/01/25 11:08:40;;;;;;;;;;;7.40;100.00;;;;;;5044172;28;19954;-67
2024/01/25 11:11:10;;;;;;;;;;;7.40;100.00;;;;;;5043522;28;19941;-67
2024/01/25 11:13:42;;;;;;;;;;;7.40;100.00;;;;;;5041930;28;20524;-67
2024/01/25 11:16:27;;;;;;;;;;;7.50;100.00;;;;;;5045007;28;20018;-67
2024/01/25 11:18:54;;;;;;;;;;;7.60;100.00;;;;;;5036788;28;20021;-67
2024/01/25 11:21:41;;;;;;;;;;;7.50;100.00;;;;;;5043594;28;19929;-67
2024/01/25 11:24:14;;;;;;;;;;;7.40;100.00;;;;;;5041747;28;19933;-67
2024/01/25 11:26:45;;;;;;;;;;;7.30;100.00;;;;;;5040662;28;19978;-67
2024/01/25 11:29:20;;;;;;;;;;;7.30;100.00;;;;;;5043239;28;19964;-67
2024/01/25 11:31:48;;;;;;;;;;;7.40;100.00;;;;;;5037049;28;20638;-67
2024/01/25 11:34:15;;;;;;;;;;;7.30;100.00;;;;;;5044392;28;19972;-67
2024/01/25 11:36:42;;;;;;;;;;;7.20;100.00;;;;;;5039597;28;19948;-67
2024/01/25 11:39:09;;;;;;;;;;;7.20;100.00;;;;;;5044714;28;19978;-67
2024/01/25 11:41:36;;;;;;;;;;;7.20;100.00;;;;;;5042891;28;20032;-67
2024/01/25 11:44:03;;;;;;;;;;;7.20;100.00;;;;;;5044466;28;19986;-67
2024/01/25 11:46:30;;;;;;;;;;;7.20;100.00;;;;;;5043915;28;19940;-67
2024/01/25 11:48:59;;;;;;;;;;;7.20;100.00;;;;;;5044463;28;19931;-67
2024/01/25 11:51:26;;;;;;;;;;;7.30;100.00;;;;;;5043282;28;19988;-67
2024/01/25 11:53:53;;;;;;;;;;;7.40;100.00;;;;;;5038383;28;20035;-67
2024/01/25 11:56:26;;;;;;;;;;;7.40;100.00;;;;;;5041860;28;19929;-67
2024/01/25 11:58:53;;;;;;;;;;;7.50;100.00;;;;;;5044418;28;19928;-67
2024/01/25 12:01:20;;;;;;;;;;;7.40;100.00;;;;;;5044588;28;19933;-67
2024/01/25 12:03:47;;;;;;;;;;;7.40;100.00;;;;;;5045147;28;19928;-67
2024/01/25 12:06:14;;;;;;;;;;;7.30;100.00;;;;;;5048376;28;19924;-67
2024/01/25 12:08:41;;;;;;;;;;;7.30;100.00;;;;;;5047999;28;20012;-67
2024/01/25 12:11:08;;;;;;;;;;;7.30;100.00;;;;;;5048029;28;20002;-67
2024/01/25 12:13:36;;;;;;;;;;;7.40;100.00;;;;;;5046388;28;19928;-67
2024/01/25 12:16:03;;;;;;;;;;;7.50;100.00;;;;;;5071422;28;19980;-66
2024/01/25 12:18:30;;;;;;;;;;;7.50;100.00;;;;;;5043762;28;19932;-67
2024/01/25 12:21:01;;;;;;;;;;;7.40;100.00;;;;;;5037133;28;20598;-66
2024/01/25 12:23:32;;;;;;;;;;;7.40;100.00;;;;;;5044700;28;19928;-67
2024/01/25 12:26:09;;;;;;;;;;;7.30;100.00;;;;;;5046122;28;19925;-67
2024/01/25 12:28:37;;;;;;;;;;;7.30;100.00;;;;;;5046270;28;19929;-67
2024/01/25 12:31:05;;;;;;;;;;;7.30;100.00;;;;;;5043507;28;19932;-67
2024/01/25 12:33:32;;;;;;;;;;;7.40;100.00;;;;;;5046259;28;19971;-67
2024/01/25 12:36:00;;;;;;;;;;;7.40;100.00;;;;;;5041756;28;20649;-67
2024/01/25 12:38:28;;;;;;;;;;;7.50;100.00;;;;;;5044314;28;20554;-67
2024/01/25 12:40:55;;;;;;;;;;;7.60;100.00;;;;;;5047641;28;20301;-67
2024/01/25 12:43:22;;;;;;;;;;;7.60;100.00;;;;;;5045795;28;20381;-67
2024/01/25 12:45:49;;;;;;;;;;;7.60;100.00;;;;;;5046832;28;19936;-68
2024/01/25 12:48:17;;;;;;;;;;;7.60;100.00;;;;;;5044658;28;20407;-67
2024/01/25 12:50:44;;;;;;;;;;;7.50;100.00;;;;;;5045375;28;19950;-67
2024/01/25 12:53:11;;;;;;;;;;;7.50;100.00;;;;;;5046813;28;19986;-67
2024/01/25 12:55:38;;;;;;;;;;;7.40;100.00;;;;;;5044879;28;19933;-67
2024/01/25 12:58:05;;;;;;;;;;;7.30;100.00;;;;;;5044712;28;20424;-67
2024/01/25 13:00:33;;;;;;;;;;;7.30;100.00;;;;;;5045640;28;20415;-67
2024/01/25 13:03:03;;;;;;;;;;;7.30;100.00;;;;;;5043168;28;20053;-67
2024/01/25 13:05:34;;;;;;;;;;;7.30;100.00;;;;;;5044392;28;21606;-67
2024/01/25 13:08:02;;;;;;;;;;;7.40;100.00;;;;;;5026168;28;19933;-67
2024/01/25 13:10:29;;;;;;;;;;;7.50;100.00;;;;;;5044214;28;19931;-67
2024/01/25 13:12:59;;;;;;;;;;;7.50;100.00;;;;;;5043177;28;19929;-67
2024/01/25 13:15:26;;;;;;;;;;;7.50;100.00;;;;;;5045551;28;20023;-68
2024/01/25 13:17:53;;;;;;;;;;;7.50;100.00;;;;;;5046067;28;20020;-66
2024/01/25 13:20:20;;;;;;;;;;;7.50;100.00;;;;;;5044295;28;20296;-67
2024/01/25 13:22:47;;;;;;;;;;;7.50;100.00;;;;;;5046665;28;19929;-68
2024/01/25 13:25:14;;;;;;;;;;;7.50;100.00;;;;;;5045802;28;19951;-67
2024/01/25 13:27:41;;;;;;;;;;;7.40;100.00;;;;;;5045234;28;19939;-68
2024/01/25 13:30:11;;;;;;;;;;;7.30;100.00;;;;;;5043616;28;20019;-67
2024/01/25 13:32:38;;;;;;;;;;;7.30;100.00;;;;;;5045304;28;20300;-67
2024/01/25 13:35:06;;;;;;;;;;;7.30;100.00;;;;;;5046322;28;20446;-67
2024/01/25 13:37:33;;;;;;;;;;;7.20;100.00;;;;;;5045934;28;20374;-67
2024/01/25 13:39:59;;;;;;;;;;;7.20;100.00;;;;;;5044976;28;19933;-67
2024/01/25 13:42:26;;;;;;;;;;;7.30;100.00;;;;;;5045666;28;20348;-67
2024/01/25 13:44:53;;;;;;;;;;;7.30;100.00;;;;;;5045190;28;19929;-67
2024/01/25 13:47:20;;;;;;;;;;;7.40;100.00;;;;;;5045946;28;20002;-67
2024/01/25 13:49:47;;;;;;;;;;;7.30;100.00;;;;;;5045625;28;20009;-67
2024/01/25 13:52:18;;;;;;;;;;;7.40;100.00;;;;;;5043568;28;19925;-67
2024/01/25 13:54:45;;;;;;;;;;;7.40;100.00;;;;;;5043868;28;19994;-66
2024/01/25 13:57:13;;;;;;;;;;;7.30;100.00;;;;;;5045792;28;19928;-67
2024/01/25 13:59:40;;;;;;;;;;;7.30;100.00;;;;;;5039509;28;20400;-67
2024/01/25 14:02:06;;;;;;;;;;;7.30;100.00;;;;;;5041443;28;20040;-67
2024/01/25 14:04:33;;;;;;;;;;;7.20;100.00;;;;;;5069762;28;20476;-67
2024/01/25 14:07:00;;;;;;;;;;;7.20;100.00;;;;;;5045936;28;19932;-66
2024/01/25 14:09:29;;;;;;;;;;;7.20;100.00;;;;;;5045713;28;19982;-66
2024/01/25 14:11:56;;;;;;;;;;;7.10;100.00;;;;;;5046060;28;19929;-66
2024/01/25 14:14:23;;;;;;;;;;;7.10;100.00;;;;;;5044540;28;19948;-66
2024/01/25 14:16:50;;;;;;;;;;;7.10;100.00;;;;;;5046055;28;19931;-66
2024/01/25 14:19:20;;;;;;;;;;;7.00;100.00;;;;;;5073031;28;20038;-66